Louisville, KY (40223)

2:54 PM EST on December 06, 2016 (GMT -0500)
Stone Bridge | | Change Station

Elev 699 ft 38.27 °N, 85.55 °W | Updated 0 second ago

Overcast
Overcast
44.1 °F
Feels Like 38 °F
N
12.0
Wind Variable Wind from WNW
Gusts 12.0 mph

Today
High -- | Low -- °F
--% Chance of Precip.
Yesterday
High -- | Low -- °F
Precip. -- in
Pressure 29.76 in
Visibility 10.0 miles
Clouds Overcast 1000 ft
Windchill 38 °F
Dew Point 41 °F
Humidity 90%
Rainfall 0.85 in
Snow Depth Not available.
7:45 AM 5:21 PM
Waxing Crescent, 44% visible
SPECI KLOU 061951Z 31011KT 10SM OVC010 07/05 A2976 RMK AO2 PRESRR
Pressure 29.76 in
Visibility 10.0 miles
Clouds Overcast 1000 ft
Windchill 38 °F
Dew Point 41 °F
Humidity 90%
Rainfall 0.85 in
Snow Depth Not available.
7:45 AM 5:21 PM
Waxing Crescent, 44% visible
SPECI KLOU 061951Z 31011KT 10SM OVC010 07/05 A2976 RMK AO2 PRESRR

10-Day Weather Forecast

Almanac

Astronomy

Dec. 06, 2016 Rise Set
Actual Time
Civil Twilight
Nautical Twilight
Astronomical Twilight
Moon
Length of Visible Light
Length of Day
Tomorrow will be .
, % of the Moon is Illuminated

Today's Extremes

State Highs State Lows

Community

WunderPhotos

Upload Photos

1,956,020 photos uploaded!

WunderBlog® & News

Nearby

Air Quality

  Air Quality AQ Index Pollutant
Not available.

Snow Depth

Station Depth Elevation

Earthquake Activity

City Distance Mag. Time & Date
Minimum magnitude displayed is 2.5.

Coastal Water Temperatures

Place Temperature

Stations

Nearby Weather Stations

Station Location Temp. Windchill Dew Point Humidity Wind Precip. Elev Updated Type
                   

Watches & Warnings

There are currently no watches in effect.